Terminal Aerodrome Forecast
Issued by NWS North Platte, NE

Home | Current Version | Previous Version | Graphics & Text | Print | Product List | Glossary On
Versions: 1 2 3 4 5 6 7 8 9 10 11 12 13 14 15 16 17 18 19
000
FTUS43 KLBF 281700
TAFVTN
TAF
KVTN 281720Z 2818/2918 VRB04KT P6SM SCT080
     FM282000 16009KT P6SM BKN070
     FM290100 11009KT P6SM BKN070
     FM290600 06007KT P6SM VCSH BKN070
     FM291200 10006KT P6SM BKN070
     FM291700 13012G18KT P6SM BKN070=

USA.gov is the U.S. government's official web portal to all federal, state and local government web resources and services.